Terminal Aerodrome Forecast
Issued by NWS Bismarck, ND

Home | Current Version | Previous Version | Text Only | Print | Product List | Glossary On
Versions: 1 2 3 4 5 6 7 8 9 10 11 12 13 14 15 16 17 18 19 20 21 22 23 24 25 26 27 28 29 30 31 32 33 34 35 36 37 38 39 40 41 42 43 44 45 46 47 48 49 50
000
FTUS43 KBIS 221147 AAU
TAFBIS
TAF AMD
KBIS 221147Z 2212/2312 05008KT 4SM -SN BR FEW030 BKN040
      TEMPO 2212/2214 2SM -SN BR OVC025
     FM221700 06011KT 5SM -SN SCT008 OVC015
     FM222300 35010KT P6SM VCSH BKN015
     FM230200 33008KT P6SM BKN025
     FM230900 30007KT P6SM SCT015 BKN050=

USA.gov is the U.S. government's official web portal to all federal, state and local government web resources and services.